createdAt,value
2023-05-18T00:01:04.210Z,4.50
2023-05-18T00:03:22.051Z,3.72
2023-05-18T00:05:39.725Z,3.88
2023-05-18T00:07:56.687Z,4.15
2023-05-18T00:10:14.425Z,3.58
2023-05-18T00:12:31.464Z,3.50
2023-05-18T00:14:49.775Z,3.42
2023-05-18T00:17:07.038Z,3.70
2023-05-18T00:19:25.125Z,3.47
2023-05-18T00:21:42.973Z,3.58
2023-05-18T00:24:00.314Z,3.90
2023-05-18T00:26:17.709Z,4.00
2023-05-18T00:28:35.014Z,3.22
2023-05-18T00:30:52.365Z,3.72
2023-05-18T00:33:09.803Z,3.80
2023-05-18T00:35:27.265Z,3.75
2023-05-18T00:37:44.652Z,3.58
2023-05-18T00:40:01.997Z,4.05
2023-05-18T00:42:19.353Z,3.45
2023-05-18T00:44:36.272Z,3.22
2023-05-18T00:46:53.629Z,3.72
2023-05-18T00:49:10.996Z,3.65
2023-05-18T00:51:28.680Z,3.60
2023-05-18T00:53:45.674Z,4.30
2023-05-18T00:56:03.081Z,3.95
2023-05-18T00:58:20.358Z,3.30
2023-05-18T01:00:37.973Z,3.60
2023-05-18T01:02:55.789Z,3.60
2023-05-18T01:05:13.153Z,3.45
2023-05-18T01:07:30.101Z,3.50
2023-05-18T01:09:47.796Z,3.10
2023-05-18T01:12:06.205Z,3.55
2023-05-18T01:14:23.254Z,3.60
2023-05-18T01:16:40.172Z,3.05
2023-05-18T01:18:57.914Z,3.60
2023-05-18T01:21:15.256Z,4.00
2023-05-18T01:23:32.670Z,3.30
2023-05-18T01:25:49.946Z,3.45
2023-05-18T01:28:07.251Z,3.45
2023-05-18T01:30:24.650Z,3.28
2023-05-18T01:32:43.023Z,3.40
2023-05-18T01:35:00.315Z,3.47
2023-05-18T01:37:17.664Z,3.70
2023-05-18T01:39:34.628Z,3.80
2023-05-18T01:41:51.587Z,3.45
2023-05-18T01:44:08.877Z,3.88
2023-05-18T01:46:26.293Z,3.42
2023-05-18T01:48:43.635Z,3.65
2023-05-18T01:51:00.579Z,3.47
2023-05-18T01:53:17.831Z,3.65
2023-05-18T01:55:37.276Z,4.13
2023-05-18T01:57:54.899Z,3.67
2023-05-18T02:00:13.333Z,3.60
2023-05-18T02:02:30.689Z,3.53
2023-05-18T02:04:48.475Z,3.63
2023-05-18T02:07:05.466Z,3.58
2023-05-18T02:09:22.813Z,3.85
2023-05-18T02:11:40.129Z,3.60
2023-05-18T02:13:57.454Z,3.63
2023-05-18T02:16:14.757Z,3.40
2023-05-18T02:18:31.795Z,3.40
2023-05-18T02:20:48.930Z,3.80
2023-05-18T02:23:06.292Z,4.10
2023-05-18T02:25:23.199Z,4.28
2023-05-18T02:27:40.258Z,3.95
2023-05-18T02:29:57.316Z,4.15
2023-05-18T02:32:15.077Z,3.75
2023-05-18T02:34:33.393Z,4.07
2023-05-18T02:36:50.728Z,3.60
2023-05-18T02:39:08.048Z,3.85
2023-05-18T02:41:25.673Z,3.25
2023-05-18T02:43:42.926Z,3.65
2023-05-18T02:46:00.257Z,3.97
2023-05-18T02:48:17.591Z,3.05
2023-05-18T02:50:35.286Z,3.70
2023-05-18T02:52:52.671Z,5.22
2023-05-18T02:55:09.653Z,4.95
2023-05-18T02:57:26.608Z,4.40
2023-05-18T02:59:43.552Z,5.63
2023-05-18T03:02:01.832Z,5.65
2023-05-18T03:04:19.237Z,3.70
2023-05-18T03:06:36.146Z,4.15
2023-05-18T03:08:53.498Z,4.05
2023-05-18T03:11:10.453Z,4.28
2023-05-18T03:13:28.724Z,4.22
2023-05-18T03:15:46.954Z,4.15
2023-05-18T03:18:05.333Z,4.03
2023-05-18T03:20:22.635Z,3.63
2023-05-18T03:22:39.646Z,3.47
2023-05-18T03:24:57.056Z,3.40
2023-05-18T03:27:14.322Z,3.90
2023-05-18T03:29:31.731Z,4.15
2023-05-18T03:31:49.601Z,3.88
2023-05-18T03:34:06.871Z,3.40
2023-05-18T03:36:23.915Z,3.53
2023-05-18T03:38:41.283Z,3.97
2023-05-18T03:40:58.649Z,4.15
2023-05-18T03:43:15.944Z,4.00
2023-05-18T03:45:33.564Z,3.70
2023-05-18T03:47:50.678Z,3.67
2023-05-18T03:50:08.458Z,3.38
2023-05-18T03:52:26.208Z,3.20
2023-05-18T03:54:43.447Z,3.65
2023-05-18T03:57:00.663Z,3.45
2023-05-18T03:59:18.027Z,3.67
2023-05-18T04:01:34.968Z,3.63
2023-05-18T04:03:52.319Z,3.33
2023-05-18T04:06:09.310Z,4.00
2023-05-18T04:08:26.732Z,3.65
2023-05-18T04:10:44.103Z,3.67
2023-05-18T04:13:01.473Z,4.00
2023-05-18T04:15:18.442Z,3.45
2023-05-18T04:17:35.492Z,5.15
2023-05-18T04:19:52.420Z,4.60
2023-05-18T04:22:09.723Z,4.53
2023-05-18T04:24:27.053Z,3.80
2023-05-18T04:26:44.355Z,4.07
2023-05-18T04:29:01.721Z,4.18
2023-05-18T04:31:19.008Z,4.03
2023-05-18T04:33:36.028Z,3.72
2023-05-18T04:35:53.439Z,3.63
2023-05-18T04:38:10.841Z,3.80
2023-05-18T04:40:28.225Z,4.10
2023-05-18T04:42:46.170Z,3.70
2023-05-18T04:45:03.464Z,3.60
2023-05-18T04:47:20.408Z,3.58
2023-05-18T04:49:37.860Z,4.10
2023-05-18T04:51:55.218Z,3.40
2023-05-18T04:54:12.544Z,3.90
2023-05-18T04:56:29.807Z,3.35
2023-05-18T04:58:47.083Z,4.00
2023-05-18T05:01:04.107Z,3.90
2023-05-18T05:03:21.263Z,3.70
2023-05-18T05:05:38.342Z,4.30
2023-05-18T05:07:56.578Z,3.75
2023-05-18T05:10:13.838Z,4.05
2023-05-18T05:12:30.840Z,3.60
2023-05-18T05:14:48.087Z,4.20
2023-05-18T05:17:05.465Z,3.97
2023-05-18T05:19:22.873Z,4.70
2023-05-18T05:21:40.355Z,4.30
2023-05-18T05:23:58.084Z,3.80
2023-05-18T05:26:16.182Z,3.53
2023-05-18T05:28:33.502Z,3.85
2023-05-18T05:30:51.834Z,3.78
2023-05-18T05:33:09.219Z,3.90
2023-05-18T05:35:26.537Z,3.65
2023-05-18T05:37:43.849Z,3.90
2023-05-18T05:40:00.865Z,4.00
2023-05-18T05:42:18.166Z,3.20
2023-05-18T05:44:36.622Z,3.38
2023-05-18T05:46:53.818Z,4.00
2023-05-18T05:49:11.138Z,3.13
2023-05-18T05:51:28.549Z,3.90
2023-05-18T05:53:46.225Z,3.72
2023-05-18T05:56:03.192Z,4.15
2023-05-18T05:58:20.571Z,3.80
2023-05-18T06:00:37.567Z,3.33
2023-05-18T06:02:54.584Z,3.72
2023-05-18T06:05:12.137Z,3.42
2023-05-18T06:07:29.512Z,3.38
2023-05-18T06:09:47.114Z,3.67
2023-05-18T06:12:04.234Z,3.38
2023-05-18T06:14:21.256Z,3.83
2023-05-18T06:16:39.614Z,3.72
2023-05-18T06:18:57.703Z,3.40
2023-05-18T06:21:15.112Z,2.88
2023-05-18T06:23:32.460Z,3.58
2023-05-18T06:25:49.800Z,3.10
2023-05-18T06:28:07.183Z,3.33
2023-05-18T06:30:25.492Z,3.33
2023-05-18T06:32:42.841Z,3.58
2023-05-18T06:35:00.203Z,3.08
2023-05-18T06:37:18.491Z,3.35
2023-05-18T06:39:36.228Z,3.55
2023-05-18T06:41:53.991Z,2.95
2023-05-18T06:44:10.979Z,3.28
2023-05-18T06:46:28.483Z,3.47
2023-05-18T06:48:45.461Z,3.17
2023-05-18T06:51:02.830Z,3.47
2023-05-18T06:53:20.832Z,3.10
2023-05-18T06:55:38.053Z,3.00
2023-05-18T06:57:55.420Z,3.28
2023-05-18T07:00:12.714Z,2.92
2023-05-18T07:02:29.687Z,3.00
2023-05-18T07:04:47.056Z,3.20
2023-05-18T07:07:04.497Z,3.28
2023-05-18T07:09:21.748Z,2.83
2023-05-18T07:11:39.100Z,2.40
2023-05-18T07:13:56.189Z,2.47
2023-05-18T07:16:13.295Z,2.65
2023-05-18T07:18:30.308Z,2.80
2023-05-18T07:20:47.634Z,2.50
2023-05-18T07:23:05.373Z,2.40
2023-05-18T07:25:22.690Z,3.00
2023-05-18T07:27:39.597Z,2.22
2023-05-18T07:29:56.523Z,2.28
2023-05-18T07:32:13.899Z,2.03
2023-05-18T07:34:30.899Z,2.60
2023-05-18T07:36:48.911Z,2.72
2023-05-18T07:39:06.236Z,3.03
2023-05-18T07:41:23.588Z,2.00
2023-05-18T07:43:40.480Z,2.40
2023-05-18T07:45:57.778Z,2.58
2023-05-18T07:48:15.183Z,2.38
2023-05-18T07:50:33.107Z,2.70
2023-05-18T07:52:50.373Z,2.55
2023-05-18T07:55:07.695Z,2.42
2023-05-18T07:57:25.004Z,2.72
2023-05-18T07:59:42.368Z,2.58
2023-05-18T08:01:59.699Z,2.40
2023-05-18T08:04:17.074Z,2.53
2023-05-18T08:06:34.791Z,2.15
2023-05-18T08:08:52.095Z,2.70
2023-05-18T08:11:09.062Z,2.53
2023-05-18T08:13:26.077Z,2.90
2023-05-18T08:15:44.477Z,2.20
2023-05-18T08:18:01.769Z,2.45
2023-05-18T08:20:18.788Z,2.67
2023-05-18T08:22:36.034Z,2.90
2023-05-18T08:24:54.025Z,2.30
2023-05-18T08:27:10.999Z,2.50
2023-05-18T08:29:28.328Z,2.65
2023-05-18T08:31:46.921Z,2.67
2023-05-18T08:34:05.318Z,2.53
2023-05-18T08:36:23.003Z,2.63
2023-05-18T08:38:40.375Z,2.42
2023-05-18T08:40:57.708Z,2.72
2023-05-18T08:43:15.497Z,2.85
2023-05-18T08:45:33.362Z,2.45
2023-05-18T08:47:50.954Z,2.60
2023-05-18T08:50:08.279Z,2.55
2023-05-18T08:52:25.585Z,2.78
2023-05-18T08:54:42.931Z,2.70
2023-05-18T08:57:01.744Z,2.58
2023-05-18T08:59:19.163Z,2.60
2023-05-18T09:01:36.243Z,2.60
2023-05-18T09:03:53.601Z,2.60
2023-05-18T09:06:10.587Z,2.60
2023-05-18T09:08:30.390Z,2.63
2023-05-18T09:10:47.733Z,2.70
2023-05-18T09:13:04.695Z,2.63
2023-05-18T09:15:21.991Z,2.67
2023-05-18T09:17:39.038Z,2.70
2023-05-18T09:19:56.130Z,3.17
2023-05-18T09:22:13.069Z,2.20
2023-05-18T09:24:30.244Z,3.15
2023-05-18T09:26:47.864Z,3.30
2023-05-18T09:29:05.301Z,2.80
2023-05-18T09:31:22.328Z,3.10
2023-05-18T09:33:39.458Z,2.85
2023-05-18T09:35:56.469Z,2.80
2023-05-18T09:38:14.779Z,3.10
2023-05-18T09:40:31.725Z,2.97
2023-05-18T09:42:48.686Z,2.67
2023-05-18T09:45:05.627Z,2.88
2023-05-18T09:47:23.074Z,3.13
2023-05-18T09:49:40.419Z,2.80
2023-05-18T09:51:57.397Z,3.08
2023-05-18T09:54:16.758Z,2.75
2023-05-18T09:56:34.146Z,2.80
2023-05-18T09:58:51.445Z,2.50
2023-05-18T10:01:08.888Z,2.75
2023-05-18T10:03:26.324Z,2.90
2023-05-18T10:05:43.617Z,3.35
2023-05-18T10:08:00.927Z,2.85
2023-05-18T10:10:18.586Z,3.10
2023-05-18T10:12:35.902Z,3.03
2023-05-18T10:14:53.249Z,2.63
2023-05-18T10:17:15.636Z,3.22
2023-05-18T10:19:33.855Z,2.83
2023-05-18T10:21:51.104Z,2.60
2023-05-18T10:24:08.574Z,2.88
2023-05-18T10:26:25.951Z,3.00
2023-05-18T10:28:43.435Z,2.53
2023-05-18T10:31:00.838Z,3.22
2023-05-18T10:33:28.605Z,2.45
2023-05-18T10:35:47.139Z,2.97
2023-05-18T10:38:04.755Z,2.90
2023-05-18T10:40:21.827Z,2.80
2023-05-18T10:42:39.166Z,3.70
2023-05-18T10:44:56.844Z,3.28
2023-05-18T10:47:14.250Z,3.40
2023-05-18T10:49:31.264Z,2.65
2023-05-18T10:51:48.735Z,2.70
2023-05-18T10:54:06.491Z,2.70
2023-05-18T10:56:23.842Z,2.85
2023-05-18T10:58:40.763Z,2.75
2023-05-18T11:00:57.747Z,2.83
2023-05-18T11:03:14.819Z,3.10
2023-05-18T11:05:32.237Z,2.75
2023-05-18T11:07:49.601Z,3.03
2023-05-18T11:10:07.355Z,2.90
2023-05-18T11:12:24.714Z,2.75
2023-05-18T11:14:42.081Z,2.95
2023-05-18T11:16:59.424Z,3.45
2023-05-18T11:19:16.446Z,2.90
2023-05-18T11:21:33.824Z,3.38
2023-05-18T11:23:51.174Z,3.08
2023-05-18T11:26:08.541Z,3.00
2023-05-18T11:28:25.546Z,3.20
2023-05-18T11:30:42.600Z,3.20
2023-05-18T11:33:00.039Z,2.72
2023-05-18T11:35:17.462Z,3.42
2023-05-18T11:37:34.763Z,3.00
2023-05-18T11:39:59.345Z,2.83
2023-05-18T11:42:17.558Z,3.03
2023-05-18T11:44:34.906Z,2.80
2023-05-18T11:46:52.307Z,3.20
2023-05-18T11:49:09.805Z,3.20
2023-05-18T11:51:26.894Z,2.83
2023-05-18T11:53:44.243Z,2.97
2023-05-18T11:56:01.172Z,2.90
2023-05-18T11:58:18.432Z,2.97
2023-05-18T12:00:35.474Z,2.85
2023-05-18T12:02:53.210Z,2.92
2023-05-18T12:05:10.424Z,3.00
2023-05-18T12:07:28.714Z,3.45
2023-05-18T12:09:45.964Z,2.95
2023-05-18T12:12:04.412Z,3.00
2023-05-18T12:14:24.756Z,3.03
2023-05-18T12:16:42.103Z,3.38
2023-05-18T12:18:59.465Z,2.95
2023-05-18T12:21:16.816Z,2.80
2023-05-18T12:23:33.962Z,2.67
2023-05-18T12:25:51.345Z,3.25
2023-05-18T12:28:08.320Z,3.17
2023-05-18T12:30:25.686Z,2.85
2023-05-18T12:32:43.115Z,3.05
2023-05-18T12:35:00.616Z,3.17
2023-05-18T12:37:17.597Z,3.08
2023-05-18T12:39:34.911Z,3.10
2023-05-18T12:41:51.934Z,2.67
2023-05-18T12:44:09.306Z,3.10
2023-05-18T12:46:26.827Z,2.83
2023-05-18T12:48:44.140Z,2.88
2023-05-18T12:51:01.264Z,2.47
2023-05-18T12:53:18.599Z,2.97
2023-05-18T12:55:36.517Z,2.58
2023-05-18T12:57:53.457Z,2.70
2023-05-18T13:00:10.574Z,3.35
2023-05-18T13:02:27.786Z,3.72
2023-05-18T13:04:45.252Z,2.90
2023-05-18T13:07:02.225Z,2.95
2023-05-18T13:09:19.161Z,3.10
2023-05-18T13:11:36.500Z,2.80
2023-05-18T13:13:53.997Z,3.08
2023-05-18T13:16:11.624Z,3.28
2023-05-18T13:18:28.657Z,2.80
2023-05-18T13:20:45.651Z,2.78
2023-05-18T13:23:02.766Z,2.80
2023-05-18T13:25:20.160Z,3.00
2023-05-18T13:27:38.298Z,3.15
2023-05-18T13:29:55.256Z,2.97
2023-05-18T13:32:13.670Z,2.90
2023-05-18T13:34:31.076Z,2.85
2023-05-18T13:36:48.074Z,2.80
2023-05-18T13:39:05.875Z,2.90
2023-05-18T13:41:22.848Z,2.78
2023-05-18T13:43:39.850Z,4.00
2023-05-18T13:45:56.843Z,3.50
2023-05-18T13:48:14.193Z,2.78
2023-05-18T13:50:33.785Z,2.83
2023-05-18T13:52:51.171Z,2.65
2023-05-18T13:55:09.023Z,2.78
2023-05-18T13:57:27.265Z,3.10
2023-05-18T13:59:44.531Z,2.95
2023-05-18T14:02:02.020Z,2.90
2023-05-18T14:04:19.007Z,2.97
2023-05-18T14:06:36.226Z,2.63
2023-05-18T14:08:53.532Z,3.17
2023-05-18T14:11:10.435Z,2.50
2023-05-18T14:13:27.568Z,2.67
2023-05-18T14:15:44.576Z,3.00
2023-05-18T14:18:02.042Z,3.25
2023-05-18T14:20:19.420Z,19.00
2023-05-18T14:22:36.729Z,5.78
2023-05-18T14:24:54.020Z,4.47
2023-05-18T14:27:11.321Z,3.58
2023-05-18T14:29:29.575Z,3.00
2023-05-18T14:31:46.575Z,2.95
2023-05-18T14:34:03.557Z,2.85
2023-05-18T14:36:22.194Z,2.95
2023-05-18T14:38:39.743Z,2.88
2023-05-18T14:40:57.111Z,2.88
2023-05-18T14:43:14.850Z,22.42
2023-05-18T14:45:32.168Z,21.58
2023-05-18T14:47:49.133Z,10.57
2023-05-18T14:50:06.827Z,4.10
2023-05-18T14:52:24.163Z,3.53
2023-05-18T14:54:41.445Z,5.00
2023-05-18T14:56:58.523Z,2.85
2023-05-18T14:59:15.951Z,4.25
2023-05-18T15:01:33.332Z,2.75
2023-05-18T15:03:50.648Z,4.22
2023-05-18T15:06:09.153Z,3.85
2023-05-18T15:08:26.496Z,2.90
2023-05-18T15:10:43.799Z,3.40
2023-05-18T15:13:01.224Z,3.38
2023-05-18T15:15:18.918Z,3.78
2023-05-18T15:17:36.041Z,3.15
2023-05-18T15:19:55.404Z,3.10
2023-05-18T15:22:13.770Z,2.85
2023-05-18T15:24:31.038Z,2.97
2023-05-18T15:26:48.145Z,3.85
2023-05-18T15:29:07.757Z,4.38
2023-05-18T15:31:25.098Z,4.25
2023-05-18T15:33:42.143Z,4.80
2023-05-18T15:35:59.272Z,4.18
2023-05-18T15:38:16.579Z,3.88
2023-05-18T15:40:34.060Z,3.10
2023-05-18T15:42:51.155Z,3.03
2023-05-18T15:45:08.465Z,2.90
2023-05-18T15:47:25.587Z,3.10
2023-05-18T15:49:42.798Z,2.85
2023-05-18T15:52:00.137Z,3.95
2023-05-18T15:54:17.497Z,3.30
2023-05-18T15:56:34.511Z,2.67
2023-05-18T15:58:51.610Z,3.28
2023-05-18T16:01:08.949Z,3.15
2023-05-18T16:03:26.461Z,2.92
2023-05-18T16:05:43.735Z,3.83
2023-05-18T16:08:02.271Z,3.05
2023-05-18T16:10:21.281Z,3.30
2023-05-18T16:12:39.091Z,3.00
2023-05-18T16:14:56.002Z,2.65
2023-05-18T16:17:13.431Z,3.15
2023-05-18T16:19:32.947Z,2.88
2023-05-18T16:21:50.388Z,2.85
2023-05-18T16:24:07.675Z,2.85
2023-05-18T16:26:25.076Z,3.60
2023-05-18T16:28:42.456Z,2.60
2023-05-18T16:30:59.859Z,3.08
2023-05-18T16:33:17.268Z,2.83
2023-05-18T16:35:34.213Z,4.20
2023-05-18T16:37:51.784Z,4.57
2023-05-18T16:40:08.745Z,3.40
2023-05-18T16:42:25.729Z,3.10
2023-05-18T16:44:43.072Z,2.63
2023-05-18T16:47:00.080Z,2.85
2023-05-18T16:49:17.437Z,3.03
2023-05-18T16:51:34.774Z,3.00
2023-05-18T16:53:52.111Z,3.03
2023-05-18T16:56:09.331Z,3.05
2023-05-18T16:58:26.700Z,2.75
2023-05-18T17:00:44.060Z,2.85
2023-05-18T17:03:01.360Z,2.95
2023-05-18T17:05:18.735Z,2.90
2023-05-18T17:07:36.121Z,2.72
2023-05-18T17:09:53.267Z,2.63
2023-05-18T17:12:10.650Z,3.17
2023-05-18T17:14:27.960Z,3.60
2023-05-18T17:16:45.350Z,3.40
2023-05-18T17:19:02.766Z,3.75
2023-05-18T17:21:19.760Z,4.10
2023-05-18T17:23:36.920Z,4.40
2023-05-18T17:26:00.868Z,4.50
2023-05-18T17:28:23.026Z,3.88
2023-05-18T17:30:40.396Z,3.10
2023-05-18T17:32:58.569Z,2.80
2023-05-18T17:35:18.085Z,5.28
2023-05-18T17:37:35.540Z,4.95
2023-05-18T17:39:52.894Z,4.70
2023-05-18T17:42:09.866Z,5.03
2023-05-18T17:44:27.267Z,4.40
2023-05-18T17:46:44.776Z,9.80
2023-05-18T17:49:02.148Z,5.75
2023-05-18T17:51:19.135Z,6.13
2023-05-18T17:53:36.426Z,4.70
2023-05-18T17:55:53.723Z,7.32
2023-05-18T17:58:11.732Z,5.97
2023-05-18T18:00:29.064Z,5.80
2023-05-18T18:02:47.236Z,4.35
2023-05-18T18:05:04.655Z,3.38
2023-05-18T18:07:21.603Z,4.25
2023-05-18T18:09:39.280Z,4.85
2023-05-18T18:11:56.488Z,7.20
2023-05-18T18:14:13.576Z,4.50
2023-05-18T18:16:31.660Z,4.40
2023-05-18T18:18:48.737Z,4.25
2023-05-18T18:21:05.766Z,4.60
2023-05-18T18:23:22.759Z,4.40
2023-05-18T18:25:40.092Z,3.75
2023-05-18T18:27:58.187Z,4.13
2023-05-18T18:30:16.538Z,4.38
2023-05-18T18:32:35.971Z,5.80
2023-05-18T18:34:55.391Z,4.85
2023-05-18T18:37:13.588Z,4.35
2023-05-18T18:39:32.811Z,4.53
2023-05-18T18:41:50.168Z,3.92
2023-05-18T18:44:07.655Z,3.05
2023-05-18T18:46:25.263Z,3.42
2023-05-18T18:48:42.690Z,3.20
2023-05-18T18:51:01.078Z,3.50
2023-05-18T18:53:20.331Z,4.05
2023-05-18T18:55:37.331Z,3.63
2023-05-18T18:57:54.647Z,3.70
2023-05-18T19:00:11.949Z,3.35
2023-05-18T19:02:28.988Z,3.58
2023-05-18T19:04:46.052Z,3.40
2023-05-18T19:07:03.344Z,3.22
2023-05-18T19:09:20.948Z,2.97
2023-05-18T19:11:37.920Z,3.13
2023-05-18T19:13:54.908Z,2.72
2023-05-18T19:16:11.930Z,3.10
2023-05-18T19:18:29.252Z,3.15
2023-05-18T19:20:46.766Z,3.17
2023-05-18T19:23:04.937Z,2.95
2023-05-18T19:25:22.326Z,3.50
2023-05-18T19:27:39.614Z,3.15
2023-05-18T19:29:57.420Z,3.00
2023-05-18T19:32:14.342Z,3.28
2023-05-18T19:34:31.370Z,3.22
2023-05-18T19:36:48.740Z,3.00
2023-05-18T19:39:06.019Z,3.17
2023-05-18T19:41:24.864Z,3.20
2023-05-18T19:43:42.077Z,3.47
2023-05-18T19:45:59.106Z,3.22
2023-05-18T19:48:16.519Z,3.10
2023-05-18T19:50:33.441Z,3.50
2023-05-18T19:52:51.719Z,3.00
2023-05-18T19:55:09.064Z,3.00
2023-05-18T19:57:26.649Z,3.15
2023-05-18T19:59:43.947Z,3.58
2023-05-18T20:02:01.288Z,3.42
2023-05-18T20:04:18.723Z,2.90
2023-05-18T20:06:36.809Z,3.30
2023-05-18T20:08:53.751Z,3.42
2023-05-18T20:11:13.860Z,3.28
2023-05-18T20:13:31.118Z,3.08
2023-05-18T20:15:48.572Z,3.30
2023-05-18T20:18:07.011Z,3.38
2023-05-18T20:20:24.531Z,3.55
2023-05-18T20:22:42.837Z,3.38
2023-05-18T20:24:59.928Z,3.33
2023-05-18T20:27:17.869Z,3.53
2023-05-18T20:29:36.003Z,3.70
2023-05-18T20:31:54.080Z,3.60
2023-05-18T20:34:11.515Z,3.33
2023-05-18T20:36:28.869Z,3.63
2023-05-18T20:38:45.887Z,3.78
2023-05-18T20:41:04.490Z,3.05
2023-05-18T20:43:21.754Z,3.83
2023-05-18T20:45:39.078Z,3.78
2023-05-18T20:47:56.424Z,3.55
2023-05-18T20:50:13.789Z,3.75
2023-05-18T20:52:31.029Z,3.40
2023-05-18T20:54:48.384Z,3.70
2023-05-18T20:57:05.549Z,3.85
2023-05-18T20:59:22.977Z,4.00
2023-05-18T21:01:40.143Z,3.90
2023-05-18T21:03:57.670Z,3.58
2023-05-18T21:06:15.752Z,3.67
2023-05-18T21:08:32.870Z,3.90
2023-05-18T21:10:49.852Z,3.47
2023-05-18T21:13:06.977Z,3.80
2023-05-18T21:15:24.267Z,3.50
2023-05-18T21:17:41.228Z,3.70
2023-05-18T21:19:58.422Z,4.10
2023-05-18T21:22:15.529Z,4.05
2023-05-18T21:24:32.637Z,3.63
2023-05-18T21:26:49.882Z,3.90
2023-05-18T21:29:07.155Z,4.20
2023-05-18T21:31:25.194Z,4.63
2023-05-18T21:33:42.616Z,5.00
2023-05-18T21:36:00.039Z,4.65
2023-05-18T21:38:17.355Z,5.60
2023-05-18T21:40:34.812Z,5.90
2023-05-18T21:42:52.588Z,5.72
2023-05-18T21:45:09.836Z,6.50
2023-05-18T21:47:26.854Z,7.57
2023-05-18T21:49:44.199Z,8.30
2023-05-18T21:52:01.537Z,9.57
2023-05-18T21:54:19.636Z,8.48
2023-05-18T21:56:36.614Z,7.45
2023-05-18T21:58:53.605Z,7.53
2023-05-18T22:01:10.674Z,8.27
2023-05-18T22:03:27.631Z,6.93
2023-05-18T22:05:44.548Z,6.68
2023-05-18T22:08:02.500Z,6.85
2023-05-18T22:10:19.425Z,6.93
2023-05-18T22:12:36.431Z,7.60
2023-05-18T22:14:53.960Z,8.63
2023-05-18T22:17:10.967Z,7.30
2023-05-18T22:19:28.454Z,6.35
2023-05-18T22:21:45.753Z,6.25
2023-05-18T22:24:03.024Z,6.28
2023-05-18T22:26:19.975Z,6.13
2023-05-18T22:28:37.317Z,5.88
2023-05-18T22:30:54.306Z,5.90
2023-05-18T22:33:11.323Z,5.72
2023-05-18T22:35:29.671Z,5.50
2023-05-18T22:37:47.018Z,5.78
2023-05-18T22:40:04.275Z,5.25
2023-05-18T22:42:21.442Z,5.45
2023-05-18T22:44:38.719Z,5.10
2023-05-18T22:46:55.946Z,5.60
2023-05-18T22:49:13.064Z,4.20
2023-05-18T22:51:30.315Z,4.72
2023-05-18T22:53:47.589Z,4.57
2023-05-18T22:56:04.899Z,5.10
2023-05-18T22:58:22.199Z,4.90
2023-05-18T23:00:40.528Z,5.10
2023-05-18T23:02:57.507Z,4.10
2023-05-18T23:05:14.579Z,4.35
2023-05-18T23:07:32.153Z,4.00
2023-05-18T23:09:50.542Z,4.13
2023-05-18T23:12:07.525Z,3.70
2023-05-18T23:14:25.090Z,4.47
2023-05-18T23:16:42.727Z,3.65
2023-05-18T23:19:00.137Z,4.40
2023-05-18T23:21:17.136Z,4.20
2023-05-18T23:23:34.228Z,4.47
2023-05-18T23:25:51.670Z,4.35
2023-05-18T23:28:08.974Z,4.10
2023-05-18T23:30:26.304Z,3.65
2023-05-18T23:32:43.467Z,3.90
2023-05-18T23:35:00.850Z,4.13
2023-05-18T23:37:18.134Z,4.05
2023-05-18T23:39:35.226Z,3.75
2023-05-18T23:41:52.225Z,3.60
2023-05-18T23:44:09.268Z,3.92
2023-05-18T23:46:26.720Z,3.90
2023-05-18T23:48:43.825Z,3.80
2023-05-18T23:51:02.229Z,3.63
2023-05-18T23:53:19.602Z,3.83
2023-05-18T23:55:36.859Z,4.00
2023-05-18T23:57:53.821Z,3.72
